Time,TemperatureF,DewpointF,PressureIn,WindDirection,WindDirectionDegrees,WindSpeedMPH,WindSpeedGustMPH,Humidity,HourlyPrecipIn,Conditions,Clouds,dailyrainin,SoftwareType,DateUTC
2013-10-17 00:00:00,55.3,53.3,29.88,East,96,0.0,5.0,93,0.00,,,0.00,Wunderground v.1.15,2013-10-17 04:00:00,
2013-10-17 00:05:00,55.3,53.3,29.88,East,96,0.0,5.0,93,0.00,,,0.00,Wunderground v.1.15,2013-10-17 04:05:00,
2013-10-17 00:09:00,55.3,53.3,29.88,East,96,0.0,5.0,93,0.00,,,0.00,Wunderground v.1.15,2013-10-17 04:09:00,
2013-10-17 00:14:00,55.2,53.2,29.87,East,96,0.0,5.0,93,0.00,,,0.00,Wunderground v.1.15,2013-10-17 04:14:00,
2013-10-17 00:19:00,55.2,53.2,29.87,East,96,0.0,5.0,93,0.00,,,0.00,Wunderground v.1.15,2013-10-17 04:19:00,
2013-10-17 00:24:00,55.1,53.1,29.87,East,96,0.0,5.0,93,0.00,,,0.00,Wunderground v.1.15,2013-10-17 04:24:00,
2013-10-17 00:29:00,55.1,53.1,29.87,East,96,0.0,5.0,93,0.00,,,0.00,Wunderground v.1.15,2013-10-17 04:29:00,
2013-10-17 00:35:00,55.1,53.1,29.87,East,96,0.0,5.0,93,0.00,,,0.00,Wunderground v.1.15,2013-10-17 04:35:00,
2013-10-17 00:40:00,55.1,53.1,29.87,East,96,0.0,5.0,93,0.00,,,0.00,Wunderground v.1.15,2013-10-17 04:40:00,
2013-10-17 00:45:00,55.3,53.6,29.88,SW,225,0.0,5.0,94,0.00,,,0.00,Wunderground v.1.15,2013-10-17 04:45:00,
2013-10-17 00:54:00,55.4,53.7,29.87,SSW,192,0.0,5.0,94,0.00,,,0.00,Wunderground v.1.15,2013-10-17 04:54:00,
2013-10-17 00:59:00,55.5,53.8,29.87,SSW,192,0.0,5.0,94,0.00,,,0.00,Wunderground v.1.15,2013-10-17 04:59:00,
2013-10-17 01:04:00,55.4,53.7,29.87,ESE,108,0.0,5.0,94,0.00,,,0.00,Wunderground v.1.15,2013-10-17 05:04:00,
2013-10-17 01:10:00,55.4,53.7,29.87,ESE,108,0.0,5.0,94,0.00,,,0.00,Wunderground v.1.15,2013-10-17 05:10:00,
2013-10-17 01:15:00,55.4,53.7,29.87,ESE,108,0.0,5.0,94,0.00,,,0.00,Wunderground v.1.15,2013-10-17 05:15:00,
2013-10-17 01:20:00,55.4,53.7,29.87,ESE,108,0.0,5.0,94,0.00,,,0.00,Wunderground v.1.15,2013-10-17 05:20:00,
2013-10-17 01:25:00,55.4,53.7,29.87,ESE,108,0.0,5.0,94,0.00,,,0.00,Wunderground v.1.15,2013-10-17 05:25:00,
2013-10-17 01:29:00,55.3,53.6,29.87,ESE,108,0.0,5.0,94,0.00,,,0.00,Wunderground v.1.15,2013-10-17 05:29:00,
2013-10-17 01:34:00,55.2,53.2,29.87,ESE,108,0.0,5.0,93,0.00,,,0.00,Wunderground v.1.15,2013-10-17 05:34:00,
2013-10-17 01:39:00,55.1,53.1,29.87,ESE,108,0.0,5.0,93,0.00,,,0.00,Wunderground v.1.15,2013-10-17 05:39:00,
2013-10-17 01:44:00,54.9,52.9,29.87,ESE,108,0.0,5.0,93,0.00,,,0.00,Wunderground v.1.15,2013-10-17 05:44:00,
2013-10-17 01:49:00,54.8,52.8,29.87,ESE,108,0.0,5.0,93,0.00,,,0.00,Wunderground v.1.15,2013-10-17 05:49:00,
2013-10-17 01:55:00,54.6,52.6,29.87,ESE,108,0.0,5.0,93,0.00,,,0.00,Wunderground v.1.15,2013-10-17 05:55:00,
2013-10-17 02:00:00,54.5,52.5,29.87,ESE,108,0.0,5.0,93,0.00,,,0.00,Wunderground v.1.15,2013-10-17 06:00:00,
2013-10-17 02:04:00,54.4,52.4,29.87,ESE,108,0.0,5.0,93,0.00,,,0.00,Wunderground v.1.15,2013-10-17 06:04:00,
2013-10-17 02:09:00,54.4,52.7,29.87,ESE,108,0.0,5.0,94,0.00,,,0.00,Wunderground v.1.15,2013-10-17 06:09:00,
2013-10-17 02:14:00,54.4,52.7,29.87,ESE,108,0.0,5.0,94,0.00,,,0.00,Wunderground v.1.15,2013-10-17 06:14:00,
2013-10-17 02:19:00,54.5,52.8,29.87,ESE,111,0.0,5.0,94,0.00,,,0.00,Wunderground v.1.15,2013-10-17 06:19:00,
2013-10-17 02:24:00,54.5,52.8,29.87,ESE,111,0.0,5.0,94,0.00,,,0.00,Wunderground v.1.15,2013-10-17 06:24:00,
2013-10-17 02:29:00,54.7,53.3,29.87,SE,124,0.0,5.0,95,0.00,,,0.00,Wunderground v.1.15,2013-10-17 06:29:00,
2013-10-17 02:35:00,54.9,53.5,29.86,SSE,154,0.0,5.0,95,0.00,,,0.00,Wunderground v.1.15,2013-10-17 06:35:00,
2013-10-17 02:40:00,55.1,53.7,29.86,SSE,165,1.0,1.0,95,0.00,,,0.00,Wunderground v.1.15,2013-10-17 06:40:00,
2013-10-17 02:44:00,55.4,54.0,29.86,South,180,1.0,5.0,95,0.00,,,0.00,Wunderground v.1.15,2013-10-17 06:44:00,
2013-10-17 02:49:00,55.5,54.1,29.86,South,175,1.0,5.0,95,0.00,,,0.00,Wunderground v.1.15,2013-10-17 06:49:00,
2013-10-17 02:54:00,55.6,54.2,29.85,South,174,1.0,5.0,95,0.00,,,0.00,Wunderground v.1.15,2013-10-17 06:54:00,
2013-10-17 02:59:00,55.5,54.1,29.85,SSE,151,1.0,1.0,95,0.00,,,0.00,Wunderground v.1.15,2013-10-17 06:59:00,
2013-10-17 03:04:00,55.5,53.8,29.85,SSE,151,0.0,2.0,94,0.00,,,0.00,Wunderground v.1.15,2013-10-17 07:04:00,
2013-10-17 03:10:00,55.5,53.8,29.85,SSE,151,0.0,5.0,94,0.00,,,0.00,Wunderground v.1.15,2013-10-17 07:10:00,
2013-10-17 03:15:00,55.3,53.6,29.85,SSE,151,0.0,5.0,94,0.00,,,0.00,Wunderground v.1.15,2013-10-17 07:15:00,
2013-10-17 03:19:00,55.2,53.5,29.85,SSE,151,0.0,5.0,94,0.00,,,0.00,Wunderground v.1.15,2013-10-17 07:19:00,
2013-10-17 03:24:00,55.2,53.8,29.85,SE,146,0.0,5.0,95,0.00,,,0.00,Wunderground v.1.15,2013-10-17 07:24:00,
2013-10-17 03:29:00,55.4,54.0,29.85,ESE,115,0.0,5.0,95,0.00,,,0.00,Wunderground v.1.15,2013-10-17 07:29:00,
2013-10-17 03:34:00,55.6,54.2,29.85,SE,132,0.0,5.0,95,0.00,,,0.00,Wunderground v.1.15,2013-10-17 07:34:00,
2013-10-17 03:39:00,55.8,54.4,29.85,South,178,0.0,5.0,95,0.00,,,0.00,Wunderground v.1.15,2013-10-17 07:39:00,
2013-10-17 03:44:00,55.9,54.5,29.84,SSE,168,0.0,5.0,95,0.00,,,0.00,Wunderground v.1.15,2013-10-17 07:44:00,
2013-10-17 03:50:00,56.0,54.6,29.84,SSE,168,0.0,5.0,95,0.00,,,0.00,Wunderground v.1.15,2013-10-17 07:50:00,
2013-10-17 03:55:00,56.0,54.6,29.84,SSE,163,0.0,5.0,95,0.00,,,0.00,Wunderground v.1.15,2013-10-17 07:55:00,
2013-10-17 04:04:00,56.2,54.8,29.85,SSE,163,0.0,5.0,95,0.00,,,0.00,Wunderground v.1.15,2013-10-17 08:04:00,
2013-10-17 04:09:00,56.2,54.8,29.85,SSE,163,0.0,5.0,95,0.00,,,0.00,Wunderground v.1.15,2013-10-17 08:09:00,
2013-10-17 04:14:00,56.1,54.7,29.85,SSE,163,0.0,5.0,95,0.00,,,0.00,Wunderground v.1.15,2013-10-17 08:14:00,
2013-10-17 04:20:00,56.0,54.6,29.85,SSE,163,0.0,0.0,95,0.00,,,0.00,Wunderground v.1.15,2013-10-17 08:20:00,
2013-10-17 04:24:00,56.0,54.6,29.85,SSE,163,0.0,0.0,95,0.00,,,0.00,Wunderground v.1.15,2013-10-17 08:24:00,
2013-10-17 04:29:00,56.0,54.6,29.84,SSE,163,0.0,0.0,95,0.00,,,0.00,Wunderground v.1.15,2013-10-17 08:29:00,
2013-10-17 04:34:00,55.9,54.5,29.85,SSE,163,0.0,0.0,95,0.00,,,0.00,Wunderground v.1.15,2013-10-17 08:34:00,
2013-10-17 04:39:00,55.9,54.5,29.84,SSE,163,0.0,0.0,95,0.00,,,0.00,Wunderground v.1.15,2013-10-17 08:39:00,
2013-10-17 04:44:00,55.9,54.5,29.84,SSE,163,0.0,0.0,95,0.00,,,0.00,Wunderground v.1.15,2013-10-17 08:44:00,
2013-10-17 04:49:00,55.9,54.5,29.85,SSE,163,0.0,0.0,95,0.00,,,0.00,Wunderground v.1.15,2013-10-17 08:49:00,
2013-10-17 04:55:00,55.8,54.4,29.85,SSE,163,0.0,0.0,95,0.00,,,0.00,Wunderground v.1.15,2013-10-17 08:55:00,
2013-10-17 05:00:00,55.8,54.4,29.85,SSE,163,0.0,0.0,95,0.00,,,0.00,Wunderground v.1.15,2013-10-17 09:00:00,
2013-10-17 05:04:00,55.8,54.4,29.85,SSE,163,0.0,3.0,95,0.00,,,0.00,Wunderground v.1.15,2013-10-17 09:04:00,
2013-10-17 05:09:00,55.7,54.3,29.85,SSE,163,0.0,3.0,95,0.00,,,0.00,Wunderground v.1.15,2013-10-17 09:09:00,
2013-10-17 05:14:00,55.7,54.3,29.85,SSE,163,0.0,3.0,95,0.00,,,0.00,Wunderground v.1.15,2013-10-17 09:14:00,
2013-10-17 05:19:00,55.7,54.3,29.85,SSE,163,0.0,3.0,95,0.00,,,0.00,Wunderground v.1.15,2013-10-17 09:19:00,
2013-10-17 05:24:00,55.7,54.3,29.85,SSE,163,0.0,3.0,95,0.00,,,0.00,Wunderground v.1.15,2013-10-17 09:24:00,
2013-10-17 05:29:00,55.7,54.3,29.85,SSE,163,0.0,3.0,95,0.00,,,0.00,Wunderground v.1.15,2013-10-17 09:29:00,
2013-10-17 05:35:00,55.7,54.3,29.85,SSE,163,0.0,3.0,95,0.00,,,0.00,Wunderground v.1.15,2013-10-17 09:35:00,
2013-10-17 05:40:00,55.7,54.3,29.86,SSE,163,0.0,3.0,95,0.00,,,0.00,Wunderground v.1.15,2013-10-17 09:40:00,
2013-10-17 05:49:00,56.0,54.6,29.86,NNW,339,0.0,3.0,95,0.00,,,0.00,Wunderground v.1.15,2013-10-17 09:49:00,
2013-10-17 05:54:00,56.2,54.8,29.87,NNW,331,0.0,3.0,95,0.00,,,0.00,Wunderground v.1.15,2013-10-17 09:54:00,
2013-10-17 05:59:00,56.2,54.8,29.88,NNE,17,0.0,3.0,95,0.00,,,0.00,Wunderground v.1.15,2013-10-17 09:59:00,
2013-10-17 06:04:00,56.3,54.9,29.87,NNE,16,0.0,3.0,95,0.00,,,0.00,Wunderground v.1.15,2013-10-17 10:04:00,
2013-10-17 06:10:00,56.3,54.9,29.87,NNE,16,0.0,3.0,95,0.00,,,0.01,Wunderground v.1.15,2013-10-17 10:10:00,
2013-10-17 06:15:00,56.3,54.9,29.88,NNE,16,0.0,3.0,95,0.00,,,0.01,Wunderground v.1.15,2013-10-17 10:15:00,
2013-10-17 06:19:00,56.3,54.9,29.88,NNE,16,0.0,3.0,95,0.00,,,0.01,Wunderground v.1.15,2013-10-17 10:19:00,
2013-10-17 06:24:00,56.3,54.9,29.88,NNE,16,0.0,3.0,95,0.00,,,0.01,Wunderground v.1.15,2013-10-17 10:24:00,
2013-10-17 06:29:00,56.3,54.9,29.88,NNE,16,0.0,3.0,95,0.00,,,0.01,Wunderground v.1.15,2013-10-17 10:29:00,
2013-10-17 06:34:00,56.2,54.8,29.89,NNE,16,0.0,3.0,95,0.00,,,0.01,Wunderground v.1.15,2013-10-17 10:34:00,
2013-10-17 06:39:00,56.1,54.7,29.89,WNW,298,0.0,3.0,95,0.00,,,0.01,Wunderground v.1.15,2013-10-17 10:39:00,
2013-10-17 06:44:00,56.0,54.6,29.89,WNW,298,0.0,3.0,95,0.00,,,0.01,Wunderground v.1.15,2013-10-17 10:44:00,
2013-10-17 06:50:00,56.0,54.6,29.88,WNW,298,0.0,3.0,95,0.00,,,0.01,Wunderground v.1.15,2013-10-17 10:50:00,
2013-10-17 06:55:00,55.9,54.5,29.89,WNW,298,0.0,3.0,95,0.00,,,0.01,Wunderground v.1.15,2013-10-17 10:55:00,
2013-10-17 07:04:00,55.9,54.5,29.88,WNW,298,0.0,3.0,95,0.00,,,0.01,Wunderground v.1.15,2013-10-17 11:04:00,
2013-10-17 07:09:00,55.7,54.3,29.89,WNW,298,0.0,3.0,95,0.00,,,0.01,Wunderground v.1.15,2013-10-17 11:09:00,
2013-10-17 07:14:00,55.6,54.2,29.88,WNW,298,0.0,3.0,95,0.00,,,0.01,Wunderground v.1.15,2013-10-17 11:14:00,
2013-10-17 07:19:00,55.6,54.2,29.88,WNW,298,0.0,3.0,95,0.00,,,0.01,Wunderground v.1.15,2013-10-17 11:19:00,
2013-10-17 07:25:00,55.5,54.1,29.88,WNW,298,0.0,3.0,95,0.00,,,0.01,Wunderground v.1.15,2013-10-17 11:25:00,
2013-10-17 07:30:00,55.5,54.1,29.88,WNW,298,0.0,3.0,95,0.00,,,0.01,Wunderground v.1.15,2013-10-17 11:30:00,
2013-10-17 07:34:00,55.4,54.0,29.89,WNW,298,0.0,3.0,95,0.00,,,0.01,Wunderground v.1.15,2013-10-17 11:34:00,
2013-10-17 07:39:00,55.3,53.6,29.89,WNW,298,0.0,3.0,94,0.00,,,0.01,Wunderground v.1.15,2013-10-17 11:39:00,
2013-10-17 07:44:00,55.3,53.6,29.89,WNW,298,0.0,3.0,94,0.00,,,0.01,Wunderground v.1.15,2013-10-17 11:44:00,
2013-10-17 07:49:00,55.3,53.6,29.89,WNW,298,0.0,3.0,94,0.00,,,0.01,Wunderground v.1.15,2013-10-17 11:49:00,
2013-10-17 07:54:00,55.3,53.6,29.90,WNW,298,0.0,3.0,94,0.00,,,0.01,Wunderground v.1.15,2013-10-17 11:54:00,
2013-10-17 07:59:00,55.3,53.6,29.90,WNW,298,0.0,3.0,94,0.00,,,0.01,Wunderground v.1.15,2013-10-17 11:59:00,
2013-10-17 08:05:00,55.4,53.4,29.90,WNW,298,0.0,3.0,93,0.00,,,0.01,Wunderground v.1.15,2013-10-17 12:05:00,
2013-10-17 08:10:00,55.6,53.6,29.90,NW,321,0.0,5.0,93,0.00,,,0.01,Wunderground v.1.15,2013-10-17 12:10:00,
2013-10-17 08:15:00,55.7,53.7,29.90,NW,309,0.0,5.0,93,0.00,,,0.01,Wunderground v.1.15,2013-10-17 12:15:00,
2013-10-17 08:19:00,55.8,53.5,29.90,NW,322,1.0,3.0,92,0.00,,,0.01,Wunderground v.1.15,2013-10-17 12:19:00,
2013-10-17 08:24:00,56.1,53.8,29.90,NW,307,1.0,3.0,92,0.00,,,0.01,Wunderground v.1.15,2013-10-17 12:24:00,
2013-10-17 08:29:00,56.5,53.9,29.90,WNW,296,2.0,4.0,91,0.00,,,0.01,Wunderground v.1.15,2013-10-17 12:29:00,
2013-10-17 08:34:00,57.1,54.2,29.90,WNW,287,3.0,4.0,90,0.00,,,0.01,Wunderground v.1.15,2013-10-17 12:34:00,
2013-10-17 08:40:00,57.4,53.9,29.90,NW,304,3.0,3.0,88,0.00,,,0.01,Wunderground v.1.15,2013-10-17 12:40:00,
2013-10-17 08:44:00,57.5,53.7,29.90,WNW,295,2.0,3.0,87,0.00,,,0.01,Wunderground v.1.15,2013-10-17 12:44:00,
2013-10-17 08:50:00,57.5,53.7,29.90,NW,313,2.0,2.0,87,0.00,,,0.01,Wunderground v.1.15,2013-10-17 12:50:00,
2013-10-17 08:55:00,57.5,53.7,29.90,WNW,293,1.0,5.0,87,0.00,,,0.01,Wunderground v.1.15,2013-10-17 12:55:00,
2013-10-17 08:59:00,57.5,53.7,29.90,WNW,294,1.0,3.0,87,0.00,,,0.01,Wunderground v.1.15,2013-10-17 12:59:00,
2013-10-17 09:04:00,57.5,53.7,29.90,NW,308,1.0,5.0,87,0.00,,,0.01,Wunderground v.1.15,2013-10-17 13:04:00,
2013-10-17 09:09:00,57.7,53.5,29.90,West,281,1.0,1.0,86,0.00,,,0.01,Wunderground v.1.15,2013-10-17 13:09:00,
2013-10-17 09:14:00,57.8,53.6,29.90,WNW,298,1.0,3.0,86,0.00,,,0.01,Wunderground v.1.15,2013-10-17 13:14:00,
2013-10-17 09:19:00,58.0,53.8,29.90,WNW,296,1.0,1.0,86,0.00,,,0.01,Wunderground v.1.15,2013-10-17 13:19:00,
2013-10-17 09:25:00,58.4,53.9,29.90,NW,315,1.0,3.0,85,0.00,,,0.01,Wunderground v.1.15,2013-10-17 13:25:00,
2013-10-17 09:30:00,58.7,53.9,29.90,WNW,297,0.0,5.0,84,0.00,,,0.01,Wunderground v.1.15,2013-10-17 13:30:00,
2013-10-17 09:34:00,59.1,53.9,29.90,WNW,291,1.0,5.0,83,0.00,,,0.01,Wunderground v.1.15,2013-10-17 13:34:00,
2013-10-17 09:39:00,59.5,53.7,29.90,WNW,292,1.0,1.0,81,0.00,,,0.01,Wunderground v.1.15,2013-10-17 13:39:00,
2013-10-17 09:44:00,59.8,54.0,29.90,WNW,299,1.0,4.0,81,0.00,,,0.01,Wunderground v.1.15,2013-10-17 13:44:00,
2013-10-17 09:49:00,60.1,53.9,29.90,West,277,2.0,2.0,80,0.00,,,0.01,Wunderground v.1.15,2013-10-17 13:49:00,
2013-10-17 09:54:00,60.4,53.5,29.90,West,259,3.0,3.0,78,0.00,,,0.01,Wunderground v.1.15,2013-10-17 13:54:00,
2013-10-17 09:59:00,60.7,53.4,29.90,NW,304,3.0,7.0,77,0.00,,,0.01,Wunderground v.1.15,2013-10-17 13:59:00,
2013-10-17 10:05:00,60.8,53.5,29.90,SW,225,4.0,7.0,77,0.00,,,0.01,Wunderground v.1.15,2013-10-17 14:05:00,
2013-10-17 10:10:00,61.1,54.2,29.90,West,281,3.0,3.0,78,0.00,,,0.01,Wunderground v.1.15,2013-10-17 14:10:00,
2013-10-17 10:14:00,61.4,53.8,29.89,NW,319,3.0,3.0,76,0.00,,,0.01,Wunderground v.1.15,2013-10-17 14:14:00,
2013-10-17 10:19:00,61.7,53.7,29.89,WNW,297,2.0,2.0,75,0.00,,,0.01,Wunderground v.1.15,2013-10-17 14:19:00,
2013-10-17 10:24:00,62.0,54.0,29.89,WNW,296,1.0,3.0,75,0.00,,,0.01,Wunderground v.1.15,2013-10-17 14:24:00,
2013-10-17 10:29:00,62.4,54.0,29.89,WNW,294,1.0,1.0,74,0.00,,,0.01,Wunderground v.1.15,2013-10-17 14:29:00,
2013-10-17 10:34:00,62.7,53.2,29.89,WNW,303,1.0,4.0,71,0.00,,,0.01,Wunderground v.1.15,2013-10-17 14:34:00,
2013-10-17 10:39:00,62.8,53.3,29.89,NW,324,2.0,5.0,71,0.00,,,0.01,Wunderground v.1.15,2013-10-17 14:39:00,
2013-10-17 10:45:00,62.9,52.6,29.89,NW,325,2.0,5.0,69,0.00,,,0.01,Wunderground v.1.15,2013-10-17 14:45:00,
2013-10-17 10:50:00,63.3,53.7,29.89,West,271,1.0,1.0,71,0.00,,,0.01,Wunderground v.1.15,2013-10-17 14:50:00,
2013-10-17 10:54:00,63.7,52.9,29.88,WSW,245,1.0,3.0,68,0.00,,,0.01,Wunderground v.1.15,2013-10-17 14:54:00,
2013-10-17 10:59:00,64.1,52.9,29.88,WNW,284,1.0,5.0,67,0.00,,,0.01,Wunderground v.1.15,2013-10-17 14:59:00,
2013-10-17 11:04:00,64.4,53.2,29.88,WSW,246,3.0,5.0,67,0.00,,,0.01,Wunderground v.1.15,2013-10-17 15:04:00,
2013-10-17 11:09:00,64.6,53.4,29.88,WNW,298,2.0,8.0,67,0.00,,,0.01,Wunderground v.1.15,2013-10-17 15:09:00,
2013-10-17 11:14:00,64.9,53.7,29.88,West,277,2.0,8.0,67,0.00,,,0.01,Wunderground v.1.15,2013-10-17 15:14:00,
2013-10-17 11:20:00,65.0,53.8,29.88,NW,307,2.0,2.0,67,0.00,,,0.01,Wunderground v.1.15,2013-10-17 15:20:00,
2013-10-17 11:25:00,65.5,54.7,29.87,NW,311,1.0,3.0,68,0.00,,,0.01,Wunderground v.1.15,2013-10-17 15:25:00,
2013-10-17 11:29:00,66.1,54.8,29.88,NW,304,2.0,2.0,67,0.00,,,0.01,Wunderground v.1.15,2013-10-17 15:29:00,
2013-10-17 11:34:00,66.6,54.5,29.87,NW,314,2.0,3.0,65,0.00,,,0.01,Wunderground v.1.15,2013-10-17 15:34:00,
2013-10-17 11:39:00,67.0,53.5,29.87,WNW,291,2.0,2.0,62,0.00,,,0.01,Wunderground v.1.15,2013-10-17 15:39:00,
2013-10-17 11:44:00,66.8,55.1,29.87,WSW,256,2.0,3.0,66,0.00,,,0.01,Wunderground v.1.15,2013-10-17 15:44:00,
2013-10-17 11:49:00,66.7,52.8,29.87,WNW,293,1.0,3.0,61,0.00,,,0.01,Wunderground v.1.15,2013-10-17 15:49:00,
2013-10-17 11:54:00,66.5,52.6,29.86,South,174,1.0,3.0,61,0.00,,,0.01,Wunderground v.1.15,2013-10-17 15:54:00,
2013-10-17 12:00:00,66.6,53.2,29.86,West,261,1.0,1.0,62,0.00,,,0.01,Wunderground v.1.15,2013-10-17 16:00:00,
2013-10-17 12:05:00,67.1,52.7,29.86,WNW,290,1.0,3.0,60,0.00,,,0.01,Wunderground v.1.15,2013-10-17 16:05:00,
2013-10-17 12:09:00,67.6,54.1,29.86,West,281,1.0,1.0,62,0.00,,,0.01,Wunderground v.1.15,2013-10-17 16:09:00,
2013-10-17 12:14:00,68.1,54.1,29.86,WNW,291,1.0,3.0,61,0.00,,,0.01,Wunderground v.1.15,2013-10-17 16:14:00,
2013-10-17 12:19:00,68.2,52.4,29.86,WNW,299,2.0,4.0,57,0.00,,,0.01,Wunderground v.1.15,2013-10-17 16:19:00,
2013-10-17 12:24:00,68.4,52.6,29.85,West,268,3.0,4.0,57,0.00,,,0.01,Wunderground v.1.15,2013-10-17 16:24:00,
2013-10-17 12:29:00,68.4,51.6,29.85,SSE,155,3.0,3.0,55,0.00,,,0.01,Wunderground v.1.15,2013-10-17 16:29:00,
2013-10-17 12:34:00,68.6,53.7,29.85,NW,310,1.0,3.0,59,0.00,,,0.01,Wunderground v.1.15,2013-10-17 16:34:00,
2013-10-17 12:40:00,69.1,52.2,29.85,WNW,297,1.0,4.0,55,0.00,,,0.01,Wunderground v.1.15,2013-10-17 16:40:00,
2013-10-17 12:45:00,69.2,51.8,29.84,WNW,282,1.0,4.0,54,0.00,,,0.01,Wunderground v.1.15,2013-10-17 16:45:00,
2013-10-17 12:50:00,69.5,51.6,29.84,WNW,297,1.0,1.0,53,0.00,,,0.01,Wunderground v.1.15,2013-10-17 16:50:00,
2013-10-17 12:54:00,69.8,50.9,29.84,WNW,284,1.0,3.0,51,0.00,,,0.01,Wunderground v.1.15,2013-10-17 16:54:00,
2013-10-17 12:59:00,69.8,50.9,29.83,SSE,158,1.0,1.0,51,0.00,,,0.01,Wunderground v.1.15,2013-10-17 16:59:00,
2013-10-17 13:04:00,69.8,51.9,29.83,NW,310,1.0,3.0,53,0.00,,,0.01,Wunderground v.1.15,2013-10-17 17:04:00,
2013-10-17 13:09:00,70.1,50.6,29.83,WNW,284,1.0,1.0,50,0.00,,,0.01,Wunderground v.1.15,2013-10-17 17:09:00,
2013-10-17 13:15:00,70.3,51.3,29.83,WNW,284,0.0,3.0,51,0.00,,,0.01,Wunderground v.1.15,2013-10-17 17:15:00,
2013-10-17 13:20:00,70.7,50.6,29.82,NNW,344,0.0,3.0,49,0.00,,,0.01,Wunderground v.1.15,2013-10-17 17:20:00,
2013-10-17 13:25:00,71.2,51.6,29.82,NNE,31,0.0,3.0,50,0.00,,,0.01,Wunderground v.1.15,2013-10-17 17:25:00,
2013-10-17 13:34:00,72.1,51.9,29.81,SE,126,0.0,3.0,49,0.00,,,0.01,Wunderground v.1.15,2013-10-17 17:34:00,
2013-10-17 13:39:00,71.6,50.3,29.81,SSE,163,1.0,3.0,47,0.00,,,0.01,Wunderground v.1.15,2013-10-17 17:39:00,
2013-10-17 13:44:00,71.2,51.1,29.81,SSE,163,1.0,3.0,49,0.00,,,0.01,Wunderground v.1.15,2013-10-17 17:44:00,
2013-10-17 13:49:00,71.5,51.9,29.81,SSE,163,0.0,3.0,50,0.00,,,0.01,Wunderground v.1.15,2013-10-17 17:49:00,
2013-10-17 13:55:00,72.1,51.3,29.81,SSE,163,0.0,3.0,48,0.00,,,0.01,Wunderground v.1.15,2013-10-17 17:55:00,
2013-10-17 14:00:00,72.6,51.8,29.81,SSE,153,0.0,3.0,48,0.00,,,0.01,Wunderground v.1.15,2013-10-17 18:00:00,
2013-10-17 14:05:00,72.6,52.9,29.81,SSE,153,0.0,3.0,50,0.00,,,0.01,Wunderground v.1.15,2013-10-17 18:05:00,
2013-10-17 14:09:00,72.9,53.2,29.80,ENE,58,0.0,3.0,50,0.00,,,0.01,Wunderground v.1.15,2013-10-17 18:09:00,
2013-10-17 14:14:00,73.4,53.6,29.80,East,95,0.0,3.0,50,0.00,,,0.01,Wunderground v.1.15,2013-10-17 18:14:00,
2013-10-17 14:19:00,73.8,53.4,29.80,ESE,105,0.0,3.0,49,0.00,,,0.01,Wunderground v.1.15,2013-10-17 18:19:00,
2013-10-17 14:24:00,74.0,55.3,29.80,SSE,165,0.0,3.0,52,0.00,,,0.01,Wunderground v.1.15,2013-10-17 18:24:00,
2013-10-17 14:30:00,74.3,52.2,29.80,SE,126,0.0,3.0,46,0.00,,,0.01,Wunderground v.1.15,2013-10-17 18:30:00,
2013-10-17 14:34:00,73.5,54.8,29.80,South,175,1.0,3.0,52,0.00,,,0.01,Wunderground v.1.15,2013-10-17 18:34:00,
2013-10-17 14:40:00,73.0,52.1,29.80,South,178,1.0,1.0,48,0.00,,,0.01,Wunderground v.1.15,2013-10-17 18:40:00,
2013-10-17 14:45:00,73.0,52.1,29.80,South,178,0.0,3.0,48,0.00,,,0.01,Wunderground v.1.15,2013-10-17 18:45:00,
2013-10-17 14:54:00,72.9,54.8,29.79,SSE,159,0.0,3.0,53,0.00,,,0.01,Wunderground v.1.15,2013-10-17 18:54:00,
2013-10-17 14:59:00,72.4,56.3,29.79,SE,128,1.0,3.0,57,0.00,,,0.01,Wunderground v.1.15,2013-10-17 18:59:00,
2013-10-17 15:04:00,72.3,55.2,29.79,South,174,1.0,3.0,55,0.00,,,0.01,Wunderground v.1.15,2013-10-17 19:04:00,
2013-10-17 15:09:00,72.5,55.9,29.79,ESE,121,1.0,1.0,56,0.00,,,0.01,Wunderground v.1.15,2013-10-17 19:09:00,
2013-10-17 15:15:00,72.7,56.1,29.79,East,96,1.0,3.0,56,0.00,,,0.01,Wunderground v.1.15,2013-10-17 19:15:00,
2013-10-17 15:20:00,72.8,54.7,29.79,SSE,157,1.0,1.0,53,0.00,,,0.01,Wunderground v.1.15,2013-10-17 19:20:00,
2013-10-17 15:24:00,72.7,55.1,29.79,ESE,109,0.0,3.0,54,0.00,,,0.01,Wunderground v.1.15,2013-10-17 19:24:00,
2013-10-17 15:29:00,72.9,54.8,29.78,East,84,0.0,3.0,53,0.00,,,0.01,Wunderground v.1.15,2013-10-17 19:29:00,
2013-10-17 15:34:00,73.3,56.2,29.78,SSE,163,0.0,3.0,55,0.00,,,0.01,Wunderground v.1.15,2013-10-17 19:34:00,
2013-10-17 15:39:00,72.9,55.3,29.78,SSE,163,0.0,3.0,54,0.00,,,0.01,Wunderground v.1.15,2013-10-17 19:39:00,
2013-10-17 15:44:00,72.3,55.2,29.78,SSE,159,0.0,3.0,55,0.00,,,0.01,Wunderground v.1.15,2013-10-17 19:44:00,
2013-10-17 15:49:00,71.7,55.2,29.78,South,170,0.0,3.0,56,0.00,,,0.01,Wunderground v.1.15,2013-10-17 19:49:00,
2013-10-17 15:55:00,71.2,55.7,29.78,South,170,0.0,3.0,58,0.00,,,0.01,Wunderground v.1.15,2013-10-17 19:55:00,
2013-10-17 16:00:00,71.1,54.6,29.78,South,170,0.0,3.0,56,0.00,,,0.01,Wunderground v.1.15,2013-10-17 20:00:00,
2013-10-17 16:04:00,70.8,54.3,29.78,South,169,0.0,3.0,56,0.00,,,0.01,Wunderground v.1.15,2013-10-17 20:04:00,
2013-10-17 16:09:00,71.0,55.0,29.78,South,169,0.0,3.0,57,0.00,,,0.01,Wunderground v.1.15,2013-10-17 20:09:00,
2013-10-17 16:14:00,70.6,55.6,29.77,South,169,0.0,3.0,59,0.00,,,0.01,Wunderground v.1.15,2013-10-17 20:14:00,
2013-10-17 16:19:00,70.4,54.9,29.77,East,101,0.0,3.0,58,0.00,,,0.01,Wunderground v.1.15,2013-10-17 20:19:00,
2013-10-17 16:24:00,70.2,54.7,29.77,ESE,102,0.0,3.0,58,0.00,,,0.01,Wunderground v.1.15,2013-10-17 20:24:00,
2013-10-17 16:29:00,69.8,54.4,29.77,SE,128,0.0,3.0,58,0.00,,,0.01,Wunderground v.1.15,2013-10-17 20:29:00,
2013-10-17 16:35:00,69.5,54.5,29.77,SE,128,0.0,3.0,59,0.00,,,0.01,Wunderground v.1.15,2013-10-17 20:35:00,
2013-10-17 16:40:00,69.4,54.9,29.77,SE,128,0.0,3.0,60,0.00,,,0.01,Wunderground v.1.15,2013-10-17 20:40:00,
2013-10-17 16:49:00,69.5,55.0,29.76,SE,128,0.0,3.0,60,0.00,,,0.01,Wunderground v.1.15,2013-10-17 20:49:00,
2013-10-17 16:54:00,69.7,55.2,29.77,SE,128,0.0,3.0,60,0.00,,,0.01,Wunderground v.1.15,2013-10-17 20:54:00,
2013-10-17 16:59:00,69.6,55.1,29.76,SE,128,0.0,3.0,60,0.00,,,0.01,Wunderground v.1.15,2013-10-17 20:59:00,
2013-10-17 17:04:00,69.5,55.5,29.76,East,97,0.0,3.0,61,0.00,,,0.01,Wunderground v.1.15,2013-10-17 21:04:00,
2013-10-17 17:10:00,69.2,55.2,29.76,East,97,0.0,3.0,61,0.00,,,0.01,Wunderground v.1.15,2013-10-17 21:10:00,
2013-10-17 17:15:00,68.8,55.2,29.76,East,97,0.0,3.0,62,0.00,,,0.01,Wunderground v.1.15,2013-10-17 21:15:00,
2013-10-17 17:19:00,68.3,54.8,29.76,East,81,0.0,3.0,62,0.00,,,0.01,Wunderground v.1.15,2013-10-17 21:19:00,
2013-10-17 17:24:00,67.9,54.8,29.76,East,81,0.0,3.0,63,0.00,,,0.01,Wunderground v.1.15,2013-10-17 21:24:00,
2013-10-17 17:29:00,67.5,54.5,29.76,East,81,0.0,3.0,63,0.00,,,0.01,Wunderground v.1.15,2013-10-17 21:29:00,
2013-10-17 17:34:00,67.1,54.5,29.76,East,81,0.0,3.0,64,0.00,,,0.01,Wunderground v.1.15,2013-10-17 21:34:00,
2013-10-17 17:39:00,66.6,54.5,29.76,ENE,65,0.0,3.0,65,0.00,,,0.01,Wunderground v.1.15,2013-10-17 21:39:00,
2013-10-17 17:44:00,66.1,54.0,29.75,ENE,65,0.0,3.0,65,0.00,,,0.01,Wunderground v.1.15,2013-10-17 21:44:00,
2013-10-17 17:50:00,65.6,53.9,29.75,ENE,65,0.0,3.0,66,0.00,,,0.01,Wunderground v.1.15,2013-10-17 21:50:00,
2013-10-17 17:55:00,65.0,53.8,29.75,ENE,65,0.0,3.0,67,0.00,,,0.01,Wunderground v.1.15,2013-10-17 21:55:00,
2013-10-17 17:59:00,64.5,53.3,29.75,ENE,59,0.0,3.0,67,0.00,,,0.01,Wunderground v.1.15,2013-10-17 21:59:00,
2013-10-17 18:04:00,63.9,53.1,29.74,NNE,20,0.0,3.0,68,0.00,,,0.01,Wunderground v.1.15,2013-10-17 22:04:00,
2013-10-17 18:09:00,63.4,52.7,29.74,NE,34,0.0,3.0,68,0.00,,,0.01,Wunderground v.1.15,2013-10-17 22:09:00,
2013-10-17 18:14:00,62.9,52.2,29.74,NE,34,0.0,3.0,68,0.00,,,0.01,Wunderground v.1.15,2013-10-17 22:14:00,
2013-10-17 18:19:00,62.5,51.8,29.74,NE,34,0.0,3.0,68,0.00,,,0.01,Wunderground v.1.15,2013-10-17 22:19:00,
2013-10-17 18:24:00,62.0,51.7,29.74,NE,34,0.0,3.0,69,0.00,,,0.01,Wunderground v.1.15,2013-10-17 22:24:00,
2013-10-17 18:30:00,61.6,51.3,29.74,NE,35,0.0,3.0,69,0.00,,,0.01,Wunderground v.1.15,2013-10-17 22:30:00,
2013-10-17 18:35:00,61.2,51.3,29.74,NE,35,0.0,3.0,70,0.00,,,0.01,Wunderground v.1.15,2013-10-17 22:35:00,
2013-10-17 18:40:00,60.8,51.0,29.74,NE,35,0.0,3.0,70,0.00,,,0.01,Wunderground v.1.15,2013-10-17 22:40:00,
2013-10-17 18:49:00,60.1,50.7,29.74,NE,35,0.0,3.0,71,0.00,,,0.01,Wunderground v.1.15,2013-10-17 22:49:00,
2013-10-17 18:54:00,59.9,50.5,29.73,NE,35,0.0,3.0,71,0.00,,,0.01,Wunderground v.1.15,2013-10-17 22:54:00,
2013-10-17 18:59:00,59.6,50.2,29.73,NE,35,0.0,3.0,71,0.00,,,0.01,Wunderground v.1.15,2013-10-17 22:59:00,
2013-10-17 19:05:00,59.4,50.4,29.74,NE,51,0.0,3.0,72,0.00,,,0.01,Wunderground v.1.15,2013-10-17 23:05:00,
2013-10-17 19:10:00,59.4,50.4,29.74,NE,49,0.0,3.0,72,0.00,,,0.01,Wunderground v.1.15,2013-10-17 23:10:00,
2013-10-17 19:15:00,59.4,50.4,29.73,NE,49,0.0,3.0,72,0.00,,,0.01,Wunderground v.1.15,2013-10-17 23:15:00,
2013-10-17 19:19:00,59.4,50.4,29.73,NE,49,0.0,3.0,72,0.00,,,0.01,Wunderground v.1.15,2013-10-17 23:19:00,
2013-10-17 19:24:00,59.3,50.6,29.73,NE,49,0.0,3.0,73,0.00,,,0.01,Wunderground v.1.15,2013-10-17 23:24:00,
2013-10-17 19:29:00,59.1,50.1,29.72,NE,49,0.0,3.0,72,0.00,,,0.01,Wunderground v.1.15,2013-10-17 23:29:00,
2013-10-17 19:34:00,59.0,50.4,29.72,NE,49,0.0,3.0,73,0.00,,,0.01,Wunderground v.1.15,2013-10-17 23:34:00,
2013-10-17 19:39:00,58.8,50.2,29.72,NE,49,0.0,3.0,73,0.00,,,0.01,Wunderground v.1.15,2013-10-17 23:39:00,
2013-10-17 19:44:00,58.7,50.1,29.72,NE,49,0.0,3.0,73,0.00,,,0.01,Wunderground v.1.15,2013-10-17 23:44:00,
2013-10-17 19:50:00,58.5,49.9,29.71,NE,49,0.0,3.0,73,0.00,,,0.01,Wunderground v.1.15,2013-10-17 23:50:00,
2013-10-17 19:55:00,58.1,49.9,29.71,NE,49,0.0,3.0,74,0.00,,,0.01,Wunderground v.1.15,2013-10-17 23:55:00,
2013-10-17 19:59:00,58.0,50.1,29.71,NE,49,0.0,3.0,75,0.00,,,0.01,Wunderground v.1.15,2013-10-17 23:59:00,
2013-10-17 20:04:00,57.8,49.9,29.72,NE,49,0.0,3.0,75,0.00,,,0.01,Wunderground v.1.15,2013-10-18 00:04:00,
2013-10-17 20:09:00,57.7,50.2,29.72,NE,49,0.0,3.0,76,0.00,,,0.01,Wunderground v.1.15,2013-10-18 00:09:00,
2013-10-17 20:14:00,57.6,50.1,29.71,NE,49,0.0,3.0,76,0.00,,,0.01,Wunderground v.1.15,2013-10-18 00:14:00,
2013-10-17 20:19:00,57.7,50.5,29.71,NE,49,0.0,3.0,77,0.00,,,0.01,Wunderground v.1.15,2013-10-18 00:19:00,
2013-10-17 20:24:00,57.6,50.4,29.71,East,88,0.0,3.0,77,0.00,,,0.01,Wunderground v.1.15,2013-10-18 00:24:00,
2013-10-17 20:30:00,57.4,50.2,29.70,East,88,0.0,3.0,77,0.00,,,0.01,Wunderground v.1.15,2013-10-18 00:30:00,
2013-10-17 20:35:00,57.3,50.5,29.69,ESE,103,0.0,3.0,78,0.00,,,0.01,Wunderground v.1.15,2013-10-18 00:35:00,
2013-10-17 20:39:00,57.3,50.5,29.70,ESE,103,0.0,3.0,78,0.00,,,0.01,Wunderground v.1.15,2013-10-18 00:39:00,
2013-10-17 20:44:00,57.4,50.2,29.69,ESE,103,0.0,3.0,77,0.00,,,0.01,Wunderground v.1.15,2013-10-18 00:44:00,
2013-10-17 20:49:00,57.5,50.3,29.69,ESE,103,0.0,3.0,77,0.00,,,0.01,Wunderground v.1.15,2013-10-18 00:49:00,
2013-10-17 20:54:00,57.6,50.4,29.69,ESE,103,0.0,3.0,77,0.00,,,0.01,Wunderground v.1.15,2013-10-18 00:54:00,
2013-10-17 20:59:00,57.6,50.4,29.69,ESE,103,0.0,3.0,77,0.00,,,0.01,Wunderground v.1.15,2013-10-18 00:59:00,
2013-10-17 21:05:00,57.7,50.9,29.68,ESE,103,0.0,3.0,78,0.00,,,0.01,Wunderground v.1.15,2013-10-18 01:05:00,
2013-10-17 21:10:00,57.7,50.9,29.68,ESE,103,0.0,3.0,78,0.00,,,0.01,Wunderground v.1.15,2013-10-18 01:10:00,
2013-10-17 21:14:00,57.7,50.9,29.68,ESE,103,0.0,3.0,78,0.00,,,0.01,Wunderground v.1.15,2013-10-18 01:14:00,
2013-10-17 21:19:00,57.7,50.9,29.68,ESE,103,0.0,3.0,78,0.00,,,0.01,Wunderground v.1.15,2013-10-18 01:19:00,
2013-10-17 21:24:00,57.7,51.9,29.69,ESE,103,0.0,3.0,81,0.00,,,0.01,Wunderground v.1.15,2013-10-18 01:24:00,
2013-10-17 21:29:00,57.7,52.2,29.68,ESE,103,0.0,3.0,82,0.00,,,0.01,Wunderground v.1.15,2013-10-18 01:29:00,
2013-10-17 21:34:00,57.6,52.5,29.68,ESE,103,0.0,3.0,83,0.00,,,0.01,Wunderground v.1.15,2013-10-18 01:34:00,
2013-10-17 21:39:00,57.5,52.7,29.67,ESE,103,0.0,3.0,84,0.00,,,0.01,Wunderground v.1.15,2013-10-18 01:39:00,
2013-10-17 21:45:00,57.3,52.8,29.67,ESE,103,0.0,3.0,85,0.00,,,0.01,Wunderground v.1.15,2013-10-18 01:45:00,
2013-10-17 21:50:00,57.2,52.7,29.67,SE,136,0.0,3.0,85,0.00,,,0.01,Wunderground v.1.15,2013-10-18 01:50:00,
2013-10-17 21:54:00,57.1,52.6,29.67,SE,136,0.0,3.0,85,0.00,,,0.01,Wunderground v.1.15,2013-10-18 01:54:00,
2013-10-17 21:59:00,57.1,53.0,29.67,SE,136,0.0,3.0,86,0.00,,,0.01,Wunderground v.1.15,2013-10-18 01:59:00,
2013-10-17 22:04:00,57.1,53.0,29.67,SE,136,0.0,3.0,86,0.00,,,0.01,Wunderground v.1.15,2013-10-18 02:04:00,
2013-10-17 22:09:00,57.1,53.3,29.65,South,178,0.0,3.0,87,0.00,,,0.01,Wunderground v.1.15,2013-10-18 02:09:00,
2013-10-17 22:14:00,57.4,54.2,29.65,SE,133,0.0,3.0,89,0.00,,,0.01,Wunderground v.1.15,2013-10-18 02:14:00,
2013-10-17 22:19:00,58.2,55.6,29.65,ESE,116,1.0,1.0,91,0.00,,,0.01,Wunderground v.1.15,2013-10-18 02:19:00,
2013-10-17 22:25:00,59.0,56.7,29.64,South,176,1.0,3.0,92,0.00,,,0.01,Wunderground v.1.15,2013-10-18 02:25:00,
2013-10-17 22:30:00,59.8,57.2,29.64,SSE,163,1.0,3.0,91,0.00,,,0.01,Wunderground v.1.15,2013-10-18 02:30:00,
2013-10-17 22:39:00,61.2,58.2,29.63,SE,142,3.0,3.0,90,0.00,,,0.01,Wunderground v.1.15,2013-10-18 02:39:00,
2013-10-17 22:44:00,61.4,58.1,29.63,South,178,3.0,3.0,89,0.00,,,0.01,Wunderground v.1.15,2013-10-18 02:44:00,
2013-10-17 22:49:00,61.6,58.3,29.63,SE,142,3.0,3.0,89,0.00,,,0.01,Wunderground v.1.15,2013-10-18 02:49:00,
2013-10-17 22:54:00,61.8,58.5,29.63,SE,142,3.0,6.0,89,0.00,,,0.01,Wunderground v.1.15,2013-10-18 02:54:00,
2013-10-17 23:00:00,61.8,58.5,29.63,SSE,165,2.0,5.0,89,0.00,,,0.01,Wunderground v.1.15,2013-10-18 03:00:00,
2013-10-17 23:05:00,61.6,58.6,29.63,SSE,151,2.0,5.0,90,0.00,,,0.01,Wunderground v.1.15,2013-10-18 03:05:00,
2013-10-17 23:09:00,61.4,58.7,29.63,SSE,161,3.0,4.0,91,0.00,,,0.01,Wunderground v.1.15,2013-10-18 03:09:00,
2013-10-17 23:14:00,61.3,59.0,29.63,SE,132,2.0,4.0,92,0.00,,,0.01,Wunderground v.1.15,2013-10-18 03:14:00,
2013-10-17 23:19:00,61.1,58.8,29.62,South,177,2.0,2.0,92,0.00,,,0.01,Wunderground v.1.15,2013-10-18 03:19:00,
2013-10-17 23:24:00,60.9,58.9,29.62,South,171,2.0,3.0,93,0.00,,,0.01,Wunderground v.1.15,2013-10-18 03:24:00,
2013-10-17 23:29:00,60.9,58.9,29.62,SSE,166,3.0,5.0,93,0.00,,,0.01,Wunderground v.1.15,2013-10-18 03:29:00,
2013-10-17 23:34:00,60.8,58.8,29.62,South,171,3.0,5.0,93,0.00,,,0.01,Wunderground v.1.15,2013-10-18 03:34:00,
2013-10-17 23:40:00,60.8,59.1,29.62,SE,132,4.0,4.0,94,0.00,,,0.01,Wunderground v.1.15,2013-10-18 03:40:00,
2013-10-17 23:45:00,60.9,59.2,29.61,SSW,193,3.0,6.0,94,0.00,,,0.01,Wunderground v.1.15,2013-10-18 03:45:00,
2013-10-17 23:50:00,61.0,59.3,29.61,South,175,3.0,3.0,94,0.00,,,0.01,Wunderground v.1.15,2013-10-18 03:50:00,
2013-10-17 23:54:00,61.0,59.3,29.60,ESE,122,3.0,3.0,94,0.00,,,0.01,Wunderground v.1.15,2013-10-18 03:54:00,
2013-10-17 23:59:00,61.1,59.4,29.60,SSE,161,2.0,2.0,94,0.00,,,0.02,Wunderground v.1.15,2013-10-18 03:59:00,